Hlavní strana
METAR-TAF:

METAR-TAF

Letiště :

Pohnpei, Mikronésie

zeměpisná šířka: 06-59N, zeměpisná délka: 158-12E, výška: 2 m

Aktuální stav počasí

Zpráva byla vytvořena před 58 minutami, v 23:54 UTC
Východoseverovýchodní vítr 12 kt
Teplota 29°C
Vlhkost vzduchu 79%
Tlak 1012 hPa
Viditelnost: 24.1 km
Polojasno ve výšce 1800 ft, Vertikální cumulus.
Zataženo ve výšce 30000 ft

METAR: PTPN 222354Z 06012KT 15SM SCT018TCU OVC300 29/25 A2987 RMK TCU SE

Čas: 11:52 (00:52 UTC)

Předpověď počasí

Zpráva byla vytvořena před 1 hodinou a 13 minutami, v 23:39 UTC
Předpověď platná od 23 v 00 UTC do 23 v 24 UTC
Východní vítr 14 kt
Viditelnost: 10 km
Skoro jasno ve výšce 1800 ft
Polojasno ve výšce 14000 ft
přeháňky v blízkosti

TAF: PTPN 222339Z 2300/2324 08014KT P6SM VCSH FEW018 SCT140

Stav a předpovědi počasí z více než 4 000 letišť (zprávy METAR a TAF).

Červené a žluté tečky na mapě představují dostupné meteorologické stanice.

Když kurzor umístíte na tečku, zobrazí se název stanice.

Pak kliknutím zobrazíte stav a předpověď počasí.

Chcete-li změnit mapu, kliknutím na zelené tlačítko se znaménkem +mapu přiblížíte, kliknutím na zelené tlačítko se znaménkem – mapu oddálíte a kliknutím na zelené šipky přejdete na sousední mapy.


METAR-TAF: